Philadelphia International Airport
KPHL : rendu visible

Aérodrome :











RETROUVEZ-NOUS SUR...

 
LOGIN :

S'inscrire | Disclaimer

   EN    FR    IT 

 









Légende :    VFR   VFR Marginal   IFR   IFR Intensif   IFR Très Intensif
Visi : 
Plafond : 
>= 8 km
>= 3000ft
5 à 8 km
1000 à 3000 ft
1500m à 5 km
500 à 1000 ft
800 à 1500m
200 à 500 ft
< 800m
< 200 ft
Symboles :   Orages  Brouillard  Fortes neiges  Fortes précipitations  Vent > 20 kt






- Altitude de l'aérodrome : 36 ft
- Code IATA : PHL


KPHL - Philadelphia International

DERNIER METAR :
  • 081254Z 25009KT 10SM SCT200 BKN260 15/12 A2955 RMK AO2 SLP004 T01500122

METARs EXPIRÉS :
  • 081154Z 25007KT 10SM FEW075 BKN200 BKN240 14/12 A2954 RMK AO2 SLP003 60027 70027 T01390122 10144 20122 55007
  • 081054Z 25008KT 10SM FEW075 SCT140 BKN230 14/12 A2952 RMK AO2 SLP996 T01390122
  • 080954Z 18008KT 10SM FEW075 SCT100 BKN150 OVC200 13/12 A2946 RMK AO2 RAE22 SLP974 P0001 T01330122

TAF KPHL
Valide du 08 à 12h jusqu'au 09 à 18h UTC


081136Z 0812/0918 25005KT P6SM BKN120
FM081600 30010G17KT P6SM FEW045 SCT150
FM090100 VRB03KT P6SM SCT200
FM091000 17005KT P6SM BKN100
FM091200 17007KT P6SM -SHRA OVC030
FM091500 19011G29KT P6SM -SHRA BKN025



MET'MAP, la Météo Aéronautique d'un coup d'oeil ! - Copyright ORBIFLY Décembre 2007 - Disclaimer

ORBIFLY MET'MAP TEAM :

Programmation & Développement : Alexandra Zaïnal
Sur une idée originale de : Baudouin d'Aumeries
Assistance à la programmation : Marc-Olivier Méhu
Soutien technique & logistique : Manuel Goepfert

Contact : metmap@orbifly.com




SOURCES & CREDITS :

   NOAA       Earth
Advisory